Greensboro, Maryland
Current Conditions -  °F | °C
As of 3:55 PM on Thursday 23 Oct 2014 (Local Time) from KESN Reporting Station
Overcast Overcast  
Wind Chill: 61°   Ceiling: 3900
Heat Index: 61°   Visibility: 10mi
Dew Point: 50°   Wind: 13mph
Humidity: 68%   Direction: 340°NNW
Pressure: 29.84"   Gusts: 21mph
Location:  38.97°N, 75.8°W
Report Text: KESN 231955Z 34011G18KT 10SM OVC039 16/10 A2984
Loading
Personal Weather Stations






























Interactive Weather Map
Tropical Storm Tracking
New forecast layout! Learn more

10-Day Weather Forecast

Advertisements
Track Severe Weather on mobile